createdAt,value
2022-10-24T00:03:04.146Z,3.33
2022-10-24T00:07:07.619Z,4.22
2022-10-24T00:11:15.585Z,3.53
2022-10-24T00:15:17.392Z,3.60
2022-10-24T00:19:19.263Z,3.30
2022-10-24T00:23:20.939Z,3.80
2022-10-24T00:27:22.632Z,3.15
2022-10-24T00:31:24.954Z,2.97
2022-10-24T00:35:26.979Z,3.70
2022-10-24T00:39:28.698Z,3.10
2022-10-24T00:43:30.744Z,3.20
2022-10-24T00:47:32.631Z,3.45
2022-10-24T00:51:34.340Z,3.12
2022-10-24T00:55:36.290Z,2.97
2022-10-24T00:59:41.291Z,3.10
2022-10-24T01:03:43.047Z,3.05
2022-10-24T01:07:59.975Z,2.67
2022-10-24T01:12:19.850Z,2.97
2022-10-24T01:16:38.034Z,2.80
2022-10-24T01:20:43.005Z,2.87
2022-10-24T01:25:10.562Z,3.22
2022-10-24T01:29:39.900Z,2.70
2022-10-24T01:33:50.791Z,2.72
2022-10-24T01:38:02.020Z,3.12
2022-10-24T01:42:06.282Z,2.70
2022-10-24T01:46:19.574Z,2.65
2022-10-24T01:50:24.803Z,3.12
2022-10-24T01:54:27.086Z,2.65
2022-10-24T01:58:28.780Z,3.17
2022-10-24T02:02:42.795Z,3.22
2022-10-24T02:06:46.955Z,2.33
2022-10-24T02:10:52.534Z,2.15
2022-10-24T02:15:08.675Z,2.62
2022-10-24T02:19:11.013Z,2.25
2022-10-24T02:23:18.791Z,2.35
2022-10-24T02:27:31.412Z,2.58
2022-10-24T02:31:41.001Z,2.60
2022-10-24T02:35:45.852Z,2.22
2022-10-24T02:39:49.051Z,2.28
2022-10-24T02:43:52.155Z,2.05
2022-10-24T02:47:59.934Z,2.50
2022-10-24T02:52:02.300Z,2.58
2022-10-24T02:56:04.243Z,2.35
2022-10-24T03:00:07.164Z,2.60
2022-10-24T03:04:08.824Z,2.10
2022-10-24T03:08:11.617Z,2.00
2022-10-24T03:12:16.195Z,2.15
2022-10-24T03:16:17.965Z,2.83
2022-10-24T03:20:19.695Z,2.33
2022-10-24T03:24:31.149Z,2.30
2022-10-24T03:28:43.079Z,2.20
2022-10-24T03:32:44.892Z,2.28
2022-10-24T03:36:46.819Z,2.20
2022-10-24T03:40:49.423Z,2.25
2022-10-24T03:44:51.135Z,2.62
2022-10-24T03:48:52.867Z,2.12
2022-10-24T03:52:54.640Z,2.50
2022-10-24T03:56:56.317Z,2.10
2022-10-24T04:00:59.250Z,2.33
2022-10-24T04:05:01.720Z,2.17
2022-10-24T04:09:04.535Z,1.92
2022-10-24T04:13:06.203Z,2.87
2022-10-24T04:17:07.916Z,2.22
2022-10-24T04:21:09.736Z,2.22
2022-10-24T04:25:11.400Z,2.22
2022-10-24T04:29:13.271Z,2.05
2022-10-24T04:33:14.914Z,2.30
2022-10-24T04:37:16.604Z,2.45
2022-10-24T04:41:18.292Z,2.28
2022-10-24T04:45:20.062Z,2.42
2022-10-24T04:49:21.845Z,2.28
2022-10-24T04:53:23.924Z,2.20
2022-10-24T04:57:25.571Z,2.20
2022-10-24T05:01:27.308Z,2.47
2022-10-24T05:05:29.027Z,2.72
2022-10-24T05:09:30.712Z,1.77
2022-10-24T05:13:35.830Z,2.55
2022-10-24T05:17:38.506Z,2.00
2022-10-24T05:21:40.166Z,2.08
2022-10-24T05:25:41.852Z,2.30
2022-10-24T05:29:43.539Z,2.10
2022-10-24T05:33:45.183Z,1.98
2022-10-24T05:37:46.863Z,1.85
2022-10-24T05:41:49.509Z,2.00
2022-10-24T05:45:52.082Z,4.07
2022-10-24T05:49:54.084Z,1.90
2022-10-24T05:53:55.815Z,2.00
2022-10-24T05:57:57.531Z,2.10
2022-10-24T06:01:59.328Z,1.90
2022-10-24T06:06:07.760Z,1.67
2022-10-24T06:10:10.584Z,1.60
2022-10-24T06:14:13.571Z,1.50
2022-10-24T06:18:15.235Z,1.80
2022-10-24T06:22:18.561Z,1.70
2022-10-24T06:26:23.150Z,1.37
2022-10-24T06:30:25.892Z,1.37
2022-10-24T06:34:27.946Z,1.52
2022-10-24T06:38:29.613Z,1.23
2022-10-24T06:42:31.366Z,1.58
2022-10-24T06:46:33.020Z,1.05
2022-10-24T06:50:34.751Z,1.37
2022-10-24T06:54:37.359Z,1.27
2022-10-24T06:58:39.069Z,1.33
2022-10-24T07:02:40.731Z,1.45
2022-10-24T07:06:42.408Z,1.50
2022-10-24T07:10:44.060Z,1.12
2022-10-24T07:14:45.696Z,1.23
2022-10-24T07:18:47.838Z,1.70
2022-10-24T07:22:49.566Z,1.30
2022-10-24T07:26:51.300Z,1.30
2022-10-24T07:30:52.966Z,0.98
2022-10-24T07:34:54.675Z,1.33
2022-10-24T07:38:58.016Z,1.35
2022-10-24T07:42:59.762Z,1.02
2022-10-24T07:47:01.423Z,1.75
2022-10-24T07:51:06.766Z,1.05
2022-10-24T07:55:08.817Z,1.62
2022-10-24T07:59:30.022Z,1.20
2022-10-24T08:03:32.397Z,1.40
2022-10-24T08:07:37.977Z,1.30
2022-10-24T08:11:39.922Z,1.12
2022-10-24T08:15:41.626Z,0.93
2022-10-24T08:19:44.410Z,1.50
2022-10-24T08:23:47.917Z,1.20
2022-10-24T08:27:49.609Z,1.27
2022-10-24T08:31:53.149Z,1.08
2022-10-24T08:35:58.700Z,1.30
2022-10-24T08:40:00.391Z,1.23
2022-10-24T08:44:06.016Z,1.10
2022-10-24T08:48:17.431Z,1.35
2022-10-24T08:52:40.723Z,1.23
2022-10-24T08:56:42.648Z,1.20
2022-10-24T09:00:47.174Z,1.45
2022-10-24T09:04:57.201Z,1.10
2022-10-24T09:09:13.753Z,1.37
2022-10-24T09:13:17.126Z,1.37
2022-10-24T09:17:33.456Z,1.20
2022-10-24T09:21:35.225Z,1.30
2022-10-24T09:25:41.059Z,1.25
2022-10-24T09:29:43.014Z,1.33
2022-10-24T09:33:46.425Z,1.10
2022-10-24T09:37:55.736Z,1.58
2022-10-24T09:41:59.483Z,1.23
2022-10-24T09:46:03.891Z,1.25
2022-10-24T09:50:06.085Z,1.20
2022-10-24T09:54:19.786Z,1.33
2022-10-24T09:58:29.786Z,1.05
2022-10-24T10:02:37.559Z,1.23
2022-10-24T10:06:47.537Z,1.02
2022-10-24T10:11:08.155Z,1.30
2022-10-24T10:15:45.888Z,1.10
2022-10-24T10:19:48.179Z,1.35
2022-10-24T10:23:52.458Z,1.20
2022-10-24T10:27:54.152Z,1.30
2022-10-24T10:32:17.093Z,1.40
2022-10-24T10:36:30.695Z,1.70
2022-10-24T10:40:44.934Z,1.30
2022-10-24T10:45:14.718Z,1.73
2022-10-24T10:49:32.478Z,1.73
2022-10-24T10:53:48.040Z,1.17
2022-10-24T10:58:06.970Z,1.65
2022-10-24T11:02:34.837Z,1.35
2022-10-24T11:06:52.896Z,1.50
2022-10-24T11:11:11.462Z,1.37
2022-10-24T11:15:31.667Z,1.10
2022-10-24T11:20:14.230Z,1.10
2022-10-24T11:24:20.483Z,1.60
2022-10-24T11:28:43.410Z,1.40
2022-10-24T11:33:01.734Z,1.77
2022-10-24T11:37:10.188Z,1.67
2022-10-24T11:41:39.028Z,1.42
2022-10-24T11:45:54.102Z,1.70
2022-10-24T11:50:03.586Z,1.60
2022-10-24T11:54:13.004Z,1.67
2022-10-24T11:58:19.534Z,1.70
2022-10-24T12:02:58.619Z,1.48
2022-10-24T12:07:29.440Z,1.40
2022-10-24T12:11:53.175Z,1.27
2022-10-24T12:16:16.556Z,1.50
2022-10-24T12:20:21.714Z,1.37
2022-10-24T12:24:32.844Z,1.37
2022-10-24T12:28:35.617Z,1.70
2022-10-24T12:32:48.177Z,1.70
2022-10-24T12:37:09.448Z,1.20
2022-10-24T12:41:33.236Z,2.05
2022-10-24T12:45:35.014Z,1.35
2022-10-24T12:49:36.746Z,1.27
2022-10-24T12:54:02.096Z,1.35
2022-10-24T12:58:21.342Z,1.02
2022-10-24T13:02:31.199Z,1.10
2022-10-24T13:06:45.433Z,1.30
2022-10-24T13:11:03.522Z,1.33
2022-10-24T13:15:16.548Z,1.45
2022-10-24T13:19:21.992Z,1.45
2022-10-24T13:23:28.308Z,0.80
2022-10-24T13:27:31.600Z,1.40
2022-10-24T13:31:33.183Z,1.55
2022-10-24T13:35:35.384Z,0.90
2022-10-24T13:39:46.561Z,1.20
2022-10-24T13:43:51.673Z,1.20
2022-10-24T13:48:13.250Z,1.02
2022-10-24T13:52:24.437Z,1.10
2022-10-24T13:56:27.339Z,1.15
2022-10-24T14:00:39.007Z,1.65
2022-10-24T14:04:46.857Z,1.33
2022-10-24T14:09:02.717Z,1.02
2022-10-24T14:13:16.372Z,1.40
2022-10-24T14:17:23.589Z,1.17
2022-10-24T14:21:25.599Z,1.20
2022-10-24T14:25:36.018Z,1.27
2022-10-24T14:29:37.683Z,1.08
2022-10-24T14:33:47.887Z,0.98
2022-10-24T14:37:50.704Z,1.35
2022-10-24T14:41:53.313Z,1.30
2022-10-24T14:46:12.193Z,1.45
2022-10-24T14:50:37.510Z,1.42
2022-10-24T14:54:43.387Z,1.20
2022-10-24T14:58:51.158Z,1.17
2022-10-24T15:02:56.684Z,1.50
2022-10-24T15:06:58.403Z,1.45
2022-10-24T15:11:16.975Z,1.37
2022-10-24T15:15:23.529Z,1.70
2022-10-24T15:19:25.380Z,1.20
2022-10-24T15:23:33.133Z,1.40
2022-10-24T15:27:43.857Z,1.25
2022-10-24T15:31:48.286Z,1.42
2022-10-24T15:35:49.962Z,1.52
2022-10-24T15:39:52.958Z,1.87
2022-10-24T15:43:56.256Z,1.30
2022-10-24T15:47:57.905Z,1.42
2022-10-24T15:51:59.714Z,1.58
2022-10-24T15:56:01.378Z,1.73
2022-10-24T16:00:03.914Z,1.80
2022-10-24T16:04:07.725Z,2.78
2022-10-24T16:08:14.342Z,2.42
2022-10-24T16:12:16.010Z,2.28
2022-10-24T16:16:17.673Z,1.87
2022-10-24T16:20:19.796Z,2.35
2022-10-24T16:24:21.420Z,1.73
2022-10-24T16:28:25.778Z,1.23
2022-10-24T16:32:27.519Z,1.48
2022-10-24T16:36:29.584Z,1.60
2022-10-24T16:40:31.950Z,2.08
2022-10-24T16:44:36.861Z,1.75
2022-10-24T16:48:38.516Z,1.83
2022-10-24T16:52:40.143Z,1.62
2022-10-24T16:56:41.788Z,1.62
2022-10-24T17:00:43.750Z,2.33
2022-10-24T17:04:46.067Z,1.90
2022-10-24T17:08:47.728Z,1.92
2022-10-24T17:12:49.411Z,1.73
2022-10-24T17:16:51.074Z,1.67
2022-10-24T17:21:00.041Z,1.10
2022-10-24T17:25:01.815Z,1.08
2022-10-24T17:29:04.691Z,1.30
2022-10-24T17:33:07.220Z,0.82
2022-10-24T17:37:34.956Z,0.98
2022-10-24T17:41:40.552Z,1.15
2022-10-24T17:45:42.507Z,1.08
2022-10-24T17:49:44.529Z,1.25
2022-10-24T17:53:46.318Z,1.00
2022-10-24T17:57:48.544Z,1.50
2022-10-24T18:01:50.533Z,1.12
2022-10-24T18:05:52.254Z,1.55
2022-10-24T18:10:00.171Z,1.20
2022-10-24T18:14:01.884Z,1.67
2022-10-24T18:18:04.072Z,1.10
2022-10-24T18:22:05.848Z,1.30
2022-10-24T18:26:09.602Z,1.42
2022-10-24T18:30:11.916Z,2.25
2022-10-24T18:34:13.607Z,1.30
2022-10-24T18:38:18.587Z,3.55
2022-10-24T18:42:23.175Z,1.30
2022-10-24T18:46:25.490Z,1.40
2022-10-24T18:50:27.516Z,1.20
2022-10-24T18:54:29.864Z,0.90
2022-10-24T18:58:31.682Z,1.17
2022-10-24T19:02:38.592Z,1.17
2022-10-24T19:06:41.093Z,0.98
2022-10-24T19:10:44.044Z,1.17
2022-10-24T19:14:45.894Z,1.73
2022-10-24T19:18:55.627Z,1.55
2022-10-24T19:22:58.533Z,1.95
2022-10-24T19:27:00.240Z,1.60
2022-10-24T19:31:02.231Z,2.15
2022-10-24T19:35:04.180Z,1.98
2022-10-24T19:39:06.433Z,2.45
2022-10-24T19:43:08.090Z,2.42
2022-10-24T19:47:09.892Z,2.30
2022-10-24T19:51:13.079Z,2.90
2022-10-24T19:55:14.815Z,3.40
2022-10-24T19:59:16.686Z,2.45
2022-10-24T20:03:18.337Z,3.58
2022-10-24T20:07:20.238Z,3.35
2022-10-24T20:11:22.624Z,2.70
2022-10-24T20:15:24.360Z,2.90
2022-10-24T20:19:26.212Z,2.92
2022-10-24T20:23:27.889Z,2.10
2022-10-24T20:27:29.632Z,1.75
2022-10-24T20:31:40.345Z,2.00
2022-10-24T20:35:43.627Z,1.85
2022-10-24T20:39:45.263Z,1.52
2022-10-24T20:43:47.104Z,1.40
2022-10-24T20:47:48.832Z,1.23
2022-10-24T20:51:50.840Z,1.15
2022-10-24T20:55:52.544Z,0.90
2022-10-24T20:59:54.244Z,0.85
2022-10-24T21:03:57.178Z,1.08
2022-10-24T21:07:58.844Z,1.10
2022-10-24T21:12:00.815Z,1.42
2022-10-24T21:16:02.552Z,1.40
2022-10-24T21:20:04.912Z,1.60
2022-10-24T21:24:07.203Z,1.70
2022-10-24T21:28:08.893Z,2.80
2022-10-24T21:32:10.619Z,2.30
2022-10-24T21:36:17.712Z,2.15
2022-10-24T21:40:19.348Z,1.60
2022-10-24T21:44:23.175Z,1.60
2022-10-24T21:48:24.930Z,1.30
2022-10-24T21:52:26.628Z,1.83
2022-10-24T21:56:31.275Z,1.50
2022-10-24T22:00:35.632Z,1.23
2022-10-24T22:04:39.818Z,1.55
2022-10-24T22:08:42.343Z,1.20
2022-10-24T22:12:43.984Z,1.17
2022-10-24T22:16:46.135Z,1.33
2022-10-24T22:20:48.109Z,1.50
2022-10-24T22:24:49.771Z,1.55
2022-10-24T22:28:52.082Z,1.87
2022-10-24T22:32:53.977Z,1.85
2022-10-24T22:37:26.184Z,1.65
2022-10-24T22:41:28.344Z,1.85
2022-10-24T22:45:30.337Z,2.30
2022-10-24T22:49:54.200Z,1.83
2022-10-24T22:53:56.236Z,2.00
2022-10-24T22:57:58.204Z,1.77
2022-10-24T23:02:05.380Z,2.30
2022-10-24T23:10:18.279Z,1.80
2022-10-24T23:14:20.236Z,2.75
2022-10-24T23:18:22.237Z,1.87
2022-10-24T23:22:29.572Z,2.00
2022-10-24T23:27:17.853Z,1.90
2022-10-24T23:31:19.873Z,1.67
2022-10-24T23:35:22.900Z,2.00
2022-10-24T23:39:27.981Z,1.87
2022-10-24T23:43:29.906Z,1.75
2022-10-24T23:47:50.189Z,1.80
2022-10-24T23:52:00.451Z,1.42
2022-10-24T23:56:02.464Z,1.62
